Latest Coastal Weather Observations for St Helens

IDT60701

Issued at 4:21 pm EST Sunday 2 August 2015 (issued every 10 minutes, with the page automatically refreshed every 10 minutes)

About coastal observations | Map of coastal stations | Coastal observations for TAS | Marine services | Other Formats
Station Details ID: 092120 Name: ST HELENS AERODROME Lat: -41.34 Lon: 148.28 Height: 48.0 m
Data from the previous 72 hours. | See also: Recent months at St Helens
Date/Time
EST
Temp

°C
Wind Pressure Rain
since 9am
mm
Weather Cloud Vis
km
Sea
Height
m
Swell
Dir
 
Speed
knots
Gust
knots
hPa Trend Height
m
Period
s
Dir
02/04:00pm 8.8 W 7 13 997.9 - 3.6 - Partly cloudy 10 - - - -
02/03:30pm 9.1 WNW 12 22 996.8 - 3.6 - Partly cloudy 10 - - - -
02/03:13pm 9.2 NW 11 21 996.7 - 3.6 - Partly cloudy 10 - - - -
02/03:00pm 8.1 W 11 26 997.1 - 3.6 - Cloudy 4 - - - -
02/02:51pm 8.4 W 11 25 997.4 - 2.4 - Partly cloudy 5 - - - -
02/02:30pm 9.4 WNW 11 18 996.6 - 1.6 - Partly cloudy 10 - - - -
02/02:00pm 9.0 NW 15 26 996.7 - 0.8 - Partly cloudy 10 - - - -
02/01:30pm 9.5 WNW 17 31 996.7 - 0.6 - Partly cloudy 6 - - - -
02/01:00pm 11.6 WNW 17 35 996.8 - 0.0 - Partly cloudy 10 - - - -
02/12:47pm 11.4 WNW 19 31 997.3 - 0.0 - Partly cloudy 10 - - - -
02/12:44pm 11.3 NW 23 31 997.2 - 0.0 - Partly cloudy 10 - - - -
02/12:30pm 12.2 W 15 38 997.4 - 0.0 - Partly cloudy 10 - - - -
02/12:00pm 11.9 WNW 16 31 998.4 - 0.0 - Mostly clear 10 - - - -
02/11:43am 11.8 WNW 15 34 999.3 - 0.0 - Partly cloudy 10 - - - -
02/11:30am 11.5 WNW 14 25 999.9 - 0.0 - Partly cloudy 10 - - - -
02/11:26am 11.3 W 15 28 1000.0 - 0.0 - Partly cloudy 10 - - - -
02/11:00am 11.6 W 13 28 1000.7 - 0.0 - Partly cloudy 10 - - - -
02/10:30am 11.7 WSW 11 21 1001.3 - 0.0 - Partly cloudy 10 - - - -
02/10:12am 11.4 W 15 34 1001.2 - 0.0 - Partly cloudy 10 - - - -
02/10:00am 11.2 W 12 23 1001.4 - 0.0 - Partly cloudy 10 - - - -
02/09:49am 10.9 W 15 33 1001.6 - 0.0 - Partly cloudy 10 - - - -
02/09:30am 10.6 W 13 32 1002.0 - 0.0 - Partly cloudy 10 - - - -
02/09:00am 10.1 W 12 26 1002.7 - 0.0 Haze Partly cloudy 15 - - - -
02/08:30am 9.8 WNW 12 24 1003.5 - 0.0 - Cloudy 10 - - - -
02/08:00am 9.4 NW 13 28 1003.9 - 0.0 - Partly cloudy 10 - - - -
02/07:30am 9.5 NW 13 23 1004.1 - 0.0 - Cloudy 10 - - - -
02/07:00am 9.3 NW 13 25 1004.5 - 0.0 - Cloudy 10 - - - -
02/06:30am 8.9 WNW 11 22 1004.6 - 0.0 - Partly cloudy 10 - - - -
02/06:00am 8.7 WNW 13 26 1004.6 - 0.0 - Mostly clear 10 - - - -
02/05:52am 8.9 WNW 15 25 1004.6 - 0.0 - Partly cloudy 10 - - - -
02/05:30am 8.6 WNW 12 28 1005.0 - 0.0 - Partly cloudy 10 - - - -
02/05:00am 8.8 WNW 13 28 1005.3 - 0.0 - Partly cloudy 10 - - - -
02/04:47am 8.8 WNW 15 26 1005.4 - 0.0 - Partly cloudy 10 - - - -
02/04:30am 8.7 WNW 13 26 1005.6 - 0.0 - Partly cloudy 10 - - - -
02/04:00am 8.6 NW 12 22 1005.9 - 0.0 - Partly cloudy 10 - - - -
02/03:30am 8.3 NW 13 21 1006.4 - 0.0 - - 10 - - - -
02/03:00am 8.5 NW 13 26 1007.1 - 0.0 - Partly cloudy 10 - - - -
02/02:30am 8.2 NW 12 19 1007.5 - 0.0 - Partly cloudy 10 - - - -
02/02:00am 8.2 NW 11 19 1008.0 - 0.0 - Partly cloudy 10 - - - -
02/01:30am 8.2 NW 11 21 1008.3 - 0.0 - - 10 - - - -
02/01:00am 8.0 WNW 10 19 1008.2 - 0.0 - - 10 - - - -
02/12:30am 8.1 WNW 11 22 1008.8 - 0.0 - - 10 - - - -
02/12:00am 8.1 NW 11 21 1009.3 - 0.0 - - 10 - - - -
 
Date/Time
EST
Temp

°C
Wind Pressure Rain
since 9am
mm
Weather Cloud Vis
km
Sea
Height
m
Swell
Dir
 
Speed
knots
Gust
knots
hPa Trend Height
m
Period
s
Dir
01/11:40pm 8.3 NW 15 26 1009.2 - 0.0 - - 10 - - - -
01/11:30pm 8.1 NW 14 23 1009.2 - 0.0 - - 10 - - - -
01/11:00pm 8.0 NW 13 20 1009.4 - 0.0 - - 10 - - - -
01/10:30pm 7.9 NW 12 22 1009.5 - 0.0 - - 10 - - - -
01/10:00pm 7.5 WNW 8 15 1009.6 - 0.0 - - 10 - - - -
01/09:30pm 7.2 NW 7 13 1010.0 - 0.0 - - 10 - - - -
01/09:00pm 6.9 WNW 7 11 1009.8 - 0.0 - - 10 - - - -
01/08:30pm 7.2 NW 6 10 1009.5 - 0.0 - - 10 - - - -
01/08:00pm 7.0 WNW 4 9 1009.5 - 0.0 - - 10 - - - -
01/07:30pm 7.4 N 5 7 1009.2 - 0.0 - - 10 - - - -
01/07:00pm 7.7 N 4 6 1009.1 - 0.0 - - 10 - - - -
01/06:30pm 7.6 WSW 5 9 1008.7 - 0.0 - - 10 - - - -
01/06:00pm 7.6 W 9 16 1007.8 - 0.0 - - 10 - - - -
01/05:30pm 8.3 W 8 13 1007.9 - 0.0 - - 10 - - - -
01/05:00pm 8.9 WNW 7 15 1007.9 - 0.0 - - 10 - - - -
01/04:30pm 9.4 W 7 17 1007.5 - 0.0 - - 10 - - - -
01/04:00pm 10.4 W 10 17 1006.6 - 0.0 - - 10 - - - -
01/03:30pm 11.1 W 8 15 1006.5 - 0.0 - - 10 - - - -
01/03:00pm 11.2 WSW 10 19 1006.6 - 0.0 - - 10 - - - -
01/02:30pm 11.6 WSW 9 16 1006.0 - 0.0 - - 10 - - - -
01/02:00pm 11.5 WSW 11 22 1005.7 - 0.0 - - 10 - - - -
01/01:30pm 11.4 WSW 12 21 1005.6 - 0.0 - - 10 - - - -
01/01:00pm 11.6 WSW 7 13 1005.0 - 0.0 - - 10 - - - -
01/12:30pm 11.6 SW 10 20 1004.8 - 0.0 - - 10 - - - -
01/12:00pm 11.4 W 10 20 1004.8 - 0.0 - - 10 - - - -
01/11:30am 10.9 SW 10 19 1004.6 - 0.0 - Partly cloudy 10 - - - -
01/11:00am 11.3 W 8 17 1004.1 - 0.0 - - 10 - - - -
01/10:30am 11.0 W 7 13 1003.3 - 0.0 - Partly cloudy 10 - - - -
01/10:00am 10.9 W 8 16 1002.9 - 0.0 - Partly cloudy 10 - - - -
01/09:30am 10.5 W 8 14 1001.7 - 0.0 - - 10 - - - -
01/09:00am 10.0 WNW 8 13 1001.5 - 3.2 Fine Partly cloudy 30 - - - -
01/08:30am 9.7 WNW 8 16 1001.0 - 3.2 - Partly cloudy 10 - - - -
01/08:00am 9.8 WNW 11 20 1000.4 - 3.2 - Partly cloudy 10 - - - -
01/07:30am 9.8 NNW 14 23 1000.1 - 2.6 - Partly cloudy 10 - - - -
01/07:00am 9.4 NNW 11 19 1000.2 - 1.8 - Partly cloudy 10 - - - -
01/06:30am 9.2 NW 14 22 1000.5 - 1.2 - Partly cloudy 10 - - - -
01/06:04am 9.0 NW 15 29 1000.5 - 0.6 - Partly cloudy 10 - - - -
01/06:00am 9.0 NW 14 23 1000.5 - 0.6 - Cloudy 10 - - - -
01/05:30am 8.7 NW 15 28 1000.6 - 0.2 - Partly cloudy 10 - - - -
01/05:00am 8.6 NW 16 29 1000.6 - 0.0 - Partly cloudy 10 - - - -
01/04:30am 8.8 NW 16 27 1001.0 - 0.0 - Partly cloudy 10 - - - -
01/04:26am 8.9 NW 15 25 1001.2 - 0.0 - Partly cloudy 10 - - - -
01/04:00am 9.0 NW 14 25 1002.0 - 0.0 - Partly cloudy 10 - - - -
01/03:30am 9.8 NW 16 28 1002.3 - 0.0 - Partly cloudy 10 - - - -
01/03:01am 10.3 NW 16 26 1003.3 - 0.0 - Partly cloudy 10 - - - -
01/03:00am 10.3 NW 16 26 1003.4 - 0.0 - Cloudy 10 - - - -
01/02:30am 10.1 NNW 15 27 1003.8 - 0.0 - Partly cloudy 10 - - - -
01/02:26am 10.0 NNW 15 25 1003.9 - 0.0 - Partly cloudy 10 - - - -
01/02:00am 9.7 NNW 12 21 1005.1 - 0.0 - Partly cloudy 10 - - - -
01/01:36am 9.7 NNW 15 27 1005.6 - 0.0 - Partly cloudy 10 - - - -
01/01:30am 9.7 NNW 13 22 1005.9 - 0.0 - Partly cloudy 10 - - - -
01/01:00am 9.6 NNW 15 21 1006.9 - 0.0 - Partly cloudy 10 - - - -
01/12:30am 9.6 NNW 15 27 1007.5 - 0.0 - Partly cloudy 10 - - - -
01/12:00am 9.4 NNW 12 22 1008.4 - 0.0 - Cloudy 10 - - - -
 
Date/Time
EST
Temp

°C
Wind Pressure Rain
since 9am
mm
Weather Cloud Vis
km
Sea
Height
m
Swell
Dir
 
Speed
knots
Gust
knots
hPa Trend Height
m
Period
s
Dir
31/11:30pm 9.4 NNW 13 22 1009.2 - 0.0 - Partly cloudy 10 - - - -
31/11:00pm 9.3 N 10 16 1009.6 - 0.0 - Partly cloudy 10 - - - -
31/10:30pm 9.1 N 11 18 1010.6 - 0.0 - Partly cloudy 10 - - - -
31/10:00pm 9.0 N 14 19 1010.9 - 0.0 - Partly cloudy 10 - - - -
31/09:30pm 9.0 NNW 14 21 1011.1 - 0.0 - Partly cloudy 10 - - - -
31/09:00pm 8.5 NW 14 23 1011.3 - 0.0 - - 10 - - - -
31/08:30pm 8.1 WNW 12 23 1011.7 - 0.0 - Partly cloudy 10 - - - -
31/08:00pm 8.0 NW 10 15 1011.9 - 0.0 - Partly cloudy 10 - - - -
31/07:30pm 8.0 NNW 8 12 1012.3 - 0.0 - Partly cloudy 10 - - - -
31/07:00pm 8.4 NNW 9 14 1012.7 - 0.0 - Partly cloudy 10 - - - -
31/06:30pm 8.3 NNW 9 13 1012.9 - 0.0 - Partly cloudy 10 - - - -
31/06:00pm 7.7 NW 8 11 1012.6 - 0.0 - Mostly clear 10 - - - -
31/05:30pm 8.2 NNW 8 14 1012.6 - 0.0 - Partly cloudy 10 - - - -
31/05:00pm 8.6 WNW 6 12 1012.9 - 0.0 - - 10 - - - -
31/04:30pm 9.4 WNW 10 14 1013.0 - 0.0 - - 10 - - - -
31/04:00pm 10.0 WNW 10 17 1013.4 - 0.0 - Partly cloudy 10 - - - -
31/03:30pm 10.3 WNW 9 19 1013.5 - 0.0 - - 10 - - - -
31/03:00pm 11.1 WNW 10 18 1013.8 - 0.0 - Mostly clear 10 - - - -
31/02:30pm 11.3 W 8 15 1013.7 - 0.0 - - 10 - - - -
31/02:00pm 11.2 W 7 14 1013.7 - 0.0 - Partly cloudy 10 - - - -
31/01:30pm 11.1 SW 9 16 1014.2 - 0.0 - Partly cloudy 10 - - - -
31/01:00pm 10.9 WNW 9 15 1014.7 - 0.0 - Partly cloudy 10 - - - -
31/12:30pm 10.9 W 8 14 1015.2 - 0.0 - Partly cloudy 10 - - - -
31/12:00pm 10.5 W 9 17 1015.7 - 0.0 - - 10 - - - -
31/11:30am 10.3 WNW 6 13 1016.0 - 0.0 - - 10 - - - -
31/11:00am 9.8 WNW 7 12 1016.1 - 0.0 - - 10 - - - -
31/10:30am 8.9 NW 5 8 1016.1 - 0.0 - - 10 - - - -
31/10:00am 7.0 NNW 4 6 1016.1 - 0.0 - - 10 - - - -
31/09:30am 6.2 WNW 2 5 1016.1 - 0.0 - - 10 - - - -
31/09:00am 4.6 NNW 3 6 1016.1 - 0.4 Fine Mostly clear 25 - - - -
31/08:30am 4.1 NW 5 7 1015.5 - 0.4 - - 10 - - - -
31/08:00am 2.9 WNW 5 6 1015.8 - 0.4 - - 10 - - - -
31/07:30am 2.2 N 6 8 1015.1 - 0.4 - - 10 - - - -
31/07:00am 2.9 N 6 7 1014.3 - 0.4 - - 10 - - - -
31/06:30am 4.0 WNW 3 5 1014.2 - 0.4 - - 10 - - - -
31/06:00am 4.2 NW 4 7 1013.7 - 0.4 - - 10 - - - -
31/05:30am 4.7 NW 1 5 1013.2 - 0.4 - - 10 - - - -
31/05:00am 4.3 W 4 6 1012.7 - 0.4 - - 10 - - - -
31/04:30am 3.8 NW 2 4 1012.2 - 0.4 - - 10 - - - -
31/04:00am 3.6 N 3 5 1011.6 - 0.4 - - 10 - - - -
31/03:30am 4.7 N 4 6 1011.2 - 0.4 - - 10 - - - -
31/03:00am 6.3 NW 5 6 1010.8 - 0.4 - - 10 - - - -
31/02:30am 5.9 WSW 2 4 1010.6 - 0.4 - - 10 - - - -
31/02:00am 7.4 W 2 4 1010.2 - 0.4 - - 10 - - - -
31/01:30am 6.9 SW 2 5 1009.5 - 0.4 - - 10 - - - -
31/01:00am 8.4 SSW 3 7 1008.7 - 0.4 - - 10 - - - -
31/12:30am 8.8 SSW 7 14 1007.8 - 0.4 - Partly cloudy 10 - - - -
31/12:00am 9.4 SW 7 11 1007.2 - 0.4 - Partly cloudy 10 - - - -
 
Date/Time
EST
Temp

°C
Wind Pressure Rain
since 9am
mm
Weather Cloud Vis
km
Sea
Height
m
Swell
Dir
 
Speed
knots
Gust
knots
hPa Trend Height
m
Period
s
Dir
30/11:30pm 10.0 SW 6 13 1006.4 - 0.4 - Partly cloudy 10 - - - -
30/11:00pm 10.3 W 7 12 1005.6 - 0.4 - Partly cloudy 10 - - - -
30/10:30pm 10.0 W 4 8 1004.8 - 0.4 - Partly cloudy 10 - - - -
30/10:00pm 10.4 WSW 6 11 1003.7 - 0.4 - - 10 - - - -
30/09:30pm 10.8 W 10 22 1002.7 - 0.4 - Partly cloudy 10 - - - -
30/09:00pm 10.3 W 12 25 1002.6 - 0.4 - Cloudy 10 - - - -
30/08:30pm 9.6 NW 14 25 1002.8 - 0.4 - Partly cloudy 10 - - - -
30/08:00pm 9.3 NW 11 18 1003.5 - 0.4 - Partly cloudy 10 - - - -
30/07:30pm 9.3 NW 14 21 1003.8 - 0.2 - Partly cloudy 10 - - - -
30/07:00pm 9.3 NNW 14 24 1003.9 - 0.2 - Partly cloudy 10 - - - -
30/06:30pm 9.2 NW 13 22 1004.6 - 0.2 - Partly cloudy 10 - - - -
30/06:00pm 9.3 NW 16 26 1005.0 - 0.0 - Cloudy 10 - - - -
30/05:46pm 9.4 NW 15 25 1005.2 - 0.0 - Partly cloudy 10 - - - -
30/05:30pm 9.4 NW 11 18 1005.5 - 0.0 - Partly cloudy 10 - - - -
30/05:10pm 9.6 NNW 15 27 1005.5 - 0.0 - Partly cloudy 10 - - - -
30/05:00pm 9.6 NNW 12 23 1005.6 - 0.0 - Partly cloudy 10 - - - -
30/04:30pm 9.6 N 12 21 1006.6 - 0.0 - Partly cloudy 10 - - - -

Other Formats:

Comma delimited format used in spreadsheet applications
http://www.bom.gov.au/fwo/IDT60701/IDT60701.95981.axf

JavaScript Object Notation format (JSON) in row-major order
http://www.bom.gov.au/fwo/IDT60701/IDT60701.95981.json